CET,Max TemperatureF,Mean TemperatureF,Min TemperatureF,Max Dew PointF,MeanDew PointF,Min DewpointF,Max Humidity, Mean Humidity, Min Humidity, Max Sea Level PressureIn, Mean Sea Level PressureIn, Min Sea Level PressureIn, Max VisibilityMiles, Mean VisibilityMiles, Min VisibilityMiles, Max Wind SpeedMPH, Mean Wind SpeedMPH, Max Gust SpeedMPH,PrecipitationIn, CloudCover, Events, WindDirDegrees
2012-12-1,41,37,33,37,34,32,100,89,70,30.01,29.97,29.95,6,3,0,12,4,,0.00,5,Fog-Rain,221
2012-12-2,41,36,32,37,31,27,100,81,61,30.06,30.01,29.95,6,5,2,10,6,,0.00,2,,279
2012-12-3,51,42,33,48,38,28,100,85,71,30.06,29.90,29.68,6,5,2,18,10,,0.00,6,Rain,215
2012-12-4,44,40,37,43,37,34,93,87,76,29.74,29.68,29.62,6,6,2,20,11,,0.00,5,Rain,268
2012-12-5,41,37,33,36,34,30,93,87,81,29.92,29.72,29.65,6,6,4,16,8,,0.00,6,Rain,279
2012-12-6,37,34,32,30,30,28,93,85,70,30.12,30.02,29.89,6,6,6,14,7,,0.00,5,,247
2012-12-7,41,36,32,37,33,30,100,92,81,29.86,29.61,29.53,6,5,0,22,15,32,0.00,6,Rain-Snow,236
2012-12-8,37,32,28,34,31,27,100,88,75,30.36,30.14,29.80,6,5,2,12,6,,0.00,6,,347
2012-12-9,44,36,28,43,35,27,100,88,76,30.33,30.18,30.01,6,4,2,18,8,24,0.00,6,Rain,229
2012-12-10,42,40,37,41,35,34,93,85,76,30.21,30.08,30.01,6,6,6,13,9,,0.00,6,Rain,307
2012-12-11,37,32,28,34,29,25,93,83,60,30.36,30.31,30.21,6,6,2,9,7,,0.00,3,Rain,16
2012-12-12,35,29,23,27,24,21,93,83,64,30.33,30.17,29.92,6,4,2,12,6,,0.00,6,,107
2012-12-13,39,32,24,37,29,21,100,85,74,29.92,29.73,29.62,6,4,1,12,9,,0.00,6,Rain,150
2012-12-14,51,45,39,50,43,37,100,90,76,29.59,29.35,29.18,6,5,2,28,16,39,0.00,6,Rain,174
2012-12-15,51,48,46,46,43,41,93,81,67,29.65,29.51,29.33,6,6,2,25,16,40,0.00,5,Rain,215
2012-12-16,51,48,44,45,42,39,93,79,67,29.74,29.70,29.65,6,6,6,17,14,26,0.00,4,Rain,217
2012-12-17,50,46,41,43,41,37,93,81,66,29.83,29.72,29.68,6,6,6,20,13,22,0.00,5,Rain,234
2012-12-18,46,44,41,43,40,37,93,86,81,30.15,29.97,29.83,6,6,2,14,8,,0.00,6,Rain,276
2012-12-19,44,42,41,41,37,36,100,83,71,30.15,30.10,29.98,6,6,2,15,7,29,0.00,7,Rain,138
2012-12-20,48,44,41,46,43,39,100,94,93,29.98,29.77,29.68,6,4,1,16,12,25,0.00,6,Rain,164
2012-12-21,48,46,42,46,43,41,93,87,81,30.06,29.90,29.77,6,6,6,15,10,,0.00,6,,237
2012-12-22,57,50,42,55,46,41,100,93,82,30.09,29.92,29.77,6,4,1,22,11,26,0.00,6,Rain,203
2012-12-23,57,55,53,52,50,48,88,78,72,29.89,29.85,29.83,6,6,6,24,19,31,0.00,6,,220
2012-12-24,55,50,46,48,45,43,93,79,63,29.86,29.73,29.59,6,6,6,21,12,31,0.00,6,,193
2012-12-25,53,50,48,46,43,41,87,74,62,29.77,29.63,29.56,6,6,3,28,16,41,0.00,5,Rain,219
2012-12-26,51,48,46,46,41,39,87,76,71,29.98,29.88,29.80,6,6,5,26,17,36,0.00,6,Rain,229
2012-12-27,51,48,46,48,42,37,94,77,66,30.15,29.82,29.68,6,6,2,36,18,50,0.00,5,Rain,251
2012-12-28,51,48,44,50,44,37,100,87,71,30.30,30.24,30.18,6,6,2,15,10,,0.00,6,Rain,208
2012-12-29,55,50,46,48,44,39,93,77,54,30.18,29.95,29.80,6,6,4,25,15,38,0.00,6,Rain,199
2012-12-30,50,47,44,41,39,36,81,72,62,30.18,30.08,29.92,6,6,6,22,17,32,0.00,5,,225
2012-12-31,51,48,44,45,42,39,93,81,66,30.18,29.96,29.74,6,6,6,23,16,33,0.00,6,Rain,201